Albany, NY

7:02 AM EDT on May 30, 2015 (GMT -0400)
Pittsfield Municipal | | Change Station
CLOSE
Current Station
Airport
Location: Pittsfield,
Elevation: 1194 ft
Nearby Weather Stations

Elev 1194 ft 42.43 °N, 73.29 °W | Updated 8 minutes ago

Partly Cloudy
Partly Cloudy
58 °F
Feels Like 58 °F
N
0
Wind Variable Wind from North

Today
High -- | Low -- °F
--% Chance of Precip.
Yesterday
High -- | Low -- °F
Precip. -- in
5:21 AM 8:24 PM
Waxing Gibbous, 89% visible
Pressure 30.12 in
Visibility 8.0 miles
Clouds Scattered Clouds 1100 ft
Dew Point 57 °F
Humidity 97%
Rainfall 0.00 in
Snow Depth Not available.
UV 1 out of 12
Pollen 9.80 out of 12
Air Quality Not available.
Flu Activity Sporadic
METAR KPSF 301054Z AUTO 00000KT 8SM SCT011 14/14 A3019 RMK AO2 SLP200 T01440139

More Conditions Fewer Conditions

Pressure 30.12 in
Visibility 8.0 miles
Clouds Scattered Clouds 1100 ft
Dew Point 57 °F
Humidity 97%
Rainfall 0.00 in
Snow Depth Not available.
UV 1 out of 12
Pollen 9.80 out of 12
Air Quality Not available.
Flu Activity Sporadic
METAR KPSF 301054Z AUTO 00000KT 8SM SCT011 14/14 A3019 RMK AO2 SLP200 T01440139

More Conditions Fewer Conditions

10-Day Weather Forecast

Almanac

Astronomy

May. 30, 2015 Rise Set
Actual Time
Civil Twilight
Nautical Twilight
Astronomical Twilight
Moon
Length of Visible Light
Length of Day
Tomorrow will be .
, % of the Moon is Illuminated

Today's Extremes

State Highs State Lows

Community

WunderPhotos

Upload Photos

1,825,478 photos uploaded!

WunderBlogs® & News

Nearby

Air Quality

  Air Quality AQ Index Pollutant
Not available.

Snow Depth

Station Depth Elevation

Earthquake Activity

City Distance Mag. Time & Date
Minimum magnitude displayed is 2.5.

Coastal Water Temperatures

Place Temperature

Stations

Nearby Weather Stations

Station Location Temp. Windchill Dew Point Humidity Wind Precip. Elev Updated Type